Time;durP1;ratioP1;P1;durP2;ratioP2;P2;SDS_P1;SDS_P2;PMS_P1;PMS_P2;Temp;Humidity;BMP_temperature;BMP_pressure;BME280_temperature;BME280_humidity;BME280_pressure;Samples;Min_cycle;Max_cycle;Signal;HPM_P1;HPM_P2
2021/07/12 00:06:07;;;;;;;1999.90;999.90;;;;;;;22.42;70.63;101076.19;15838591;28;20477;-60
2021/07/12 00:13:41;;;;;;;1999.90;999.90;;;;;;;22.29;70.75;101082.66;15844986;28;20130;-61
2021/07/12 00:21:18;;;;;;;1999.90;999.90;;;;;;;22.26;70.51;101086.31;15871617;28;20039;-61
2021/07/12 00:28:52;;;;;;;1999.90;999.90;;;;;;;21.94;72.68;101078.50;15870927;28;20424;-62
2021/07/12 00:36:24;;;;;;;1999.90;999.90;;;;;;;22.34;71.33;101071.69;15836008;28;20663;-61
2021/07/12 00:43:58;;;;;;;1999.90;999.90;;;;;;;22.24;72.11;101068.84;15838497;28;20035;-61
2021/07/12 00:51:31;;;;;;;1999.90;999.90;;;;;;;22.32;72.11;101065.59;15868994;28;20048;-62
2021/07/12 00:59:04;;;;;;;;;;;;;;;22.32;71.95;101062.78;15834130;28;20044;-61
2021/07/12 01:06:38;;;;;;;1999.90;999.90;;;;;;;22.23;71.99;101053.00;15834700;28;19924;-59
2021/07/12 01:14:27;;;;;;;1999.90;999.90;;;;;;;22.09;72.82;101062.31;15846069;28;20423;-59
2021/07/12 01:22:47;;;;;;;1999.90;999.90;;;;;;;22.05;72.98;101053.75;15848500;28;20399;-62
2021/07/12 01:30:24;;;;;;;1999.90;999.90;;;;;;;22.03;72.75;101038.34;15849658;28;20050;-59
2021/07/12 01:38:07;;;;;;;1999.90;999.90;;;;;;;21.84;73.89;101033.84;15822915;28;20082;-60
2021/07/12 01:45:51;;;;;;;1999.90;999.90;;;;;;;21.81;74.24;101026.94;15831138;28;20047;-62
2021/07/12 01:53:38;;;;;;;1999.90;999.90;;;;;;;21.87;74.34;101031.00;15848084;28;20035;-61
2021/07/12 02:01:22;;;;;;;1999.90;999.90;;;;;;;21.86;74.38;101028.56;15847721;28;20097;-61
2021/07/12 02:09:00;;;;;;;1999.90;999.90;;;;;;;21.85;74.41;101022.06;15848290;28;20039;-61
2021/07/12 02:16:41;;;;;;;1999.90;999.90;;;;;;;21.84;74.36;101013.97;15847615;28;20044;-60
2021/07/12 02:24:18;;;;;;;1999.90;999.90;;;;;;;21.33;77.15;101001.63;15865714;28;20039;-62
2021/07/12 02:31:52;;;;;;;1999.90;999.90;;;;;;;21.17;78.06;101004.00;15860219;28;20051;-60
2021/07/12 02:39:28;;;;;;;1999.90;999.90;;;;;;;21.35;78.05;100992.72;15859732;28;20488;-60
2021/07/12 02:47:00;;;;;;;1999.90;999.90;;;;;;;21.51;77.04;100989.53;15846362;28;20478;-61
2021/07/12 02:54:41;;;;;;;1999.90;999.90;;;;;;;21.80;75.78;101001.78;15842679;28;20039;-61
2021/07/12 03:02:16;;;;;;;1999.90;999.90;;;;;;;21.63;76.43;100988.34;15839990;28;20043;-61
2021/07/12 03:09:53;;;;;;;1999.90;999.90;;;;;;;21.53;77.06;100982.25;15875417;28;20055;-61
2021/07/12 03:17:30;;;;;;;1999.90;999.90;;;;;;;21.25;78.76;100996.31;15823011;28;20117;-62
2021/07/12 03:25:08;;;;;;;1999.90;999.90;;;;;;;21.44;78.04;100990.31;15826757;28;20040;-62
2021/07/12 03:32:45;;;;;;;1999.90;999.90;;;;;;;21.29;78.28;100988.66;15855700;28;20051;-62
2021/07/12 03:40:19;;;;;;;1999.90;999.90;;;;;;;21.40;78.86;101000.06;15873008;28;20048;-62
2021/07/12 03:47:53;;;;;;;1999.90;999.90;;;;;;;21.38;78.70;100994.78;15840014;28;20492;-61
2021/07/12 03:55:31;;;;;;;1999.90;999.90;;;;;;;21.29;79.19;101009.34;15822513;28;20085;-62
2021/07/12 04:03:03;;;;;;;1999.90;999.90;;;;;;;21.52;78.28;100991.16;15871663;28;20039;-61
2021/07/12 04:10:38;;;;;;;1999.90;999.90;;;;;;;21.54;79.19;100989.53;15872450;28;20127;-61
2021/07/12 04:18:11;;;;;;;1999.90;999.90;;;;;;;21.48;79.12;100979.81;15823563;28;20075;-60
2021/07/12 04:25:44;;;;;;;1999.90;999.90;;;;;;;21.44;79.26;100989.50;15844220;28;20114;-62
2021/07/12 04:33:16;;;;;;;1999.90;999.90;;;;;;;21.48;79.66;101002.53;15851641;28;20096;-61
2021/07/12 04:40:50;;;;;;;1999.90;999.90;;;;;;;21.44;79.34;100992.34;15869316;28;20054;-61
2021/07/12 04:48:22;;;;;;;1999.90;999.90;;;;;;;21.61;79.12;100992.41;15828245;28;20523;-60
2021/07/12 04:55:56;;;;;;;1999.90;999.90;;;;;;;21.50;80.11;100988.72;15826628;28;20046;-62
2021/07/12 05:03:32;;;;;;;1999.90;999.90;;;;;;;21.67;79.96;100984.28;15868437;28;20537;-60
2021/07/12 05:11:06;;;;;;;1999.90;999.90;;;;;;;21.43;82.01;100987.88;15849790;28;20468;-62
2021/07/12 05:18:39;;;;;;;1999.90;999.90;;;;;;;21.32;84.22;100980.16;15835890;28;20147;-60
2021/07/12 05:26:12;;;;;;;1999.90;999.90;;;;;;;21.51;83.83;100992.38;15844165;28;20066;-60
2021/07/12 05:33:45;;;;;;;1999.90;999.90;;;;;;;21.70;82.95;101003.38;15842357;28;20046;-59
2021/07/12 05:41:19;;;;;;;1999.90;999.90;;;;;;;21.33;85.88;100995.97;15873132;28;20510;-60
2021/07/12 05:48:51;;;;;;;1999.90;999.90;;;;;;;21.22;85.46;100983.72;15868114;28;20418;-60
2021/07/12 05:56:24;;;;;;;1999.90;999.90;;;;;;;21.55;84.16;100979.00;15866064;28;20078;-62
2021/07/12 06:03:56;;;;;;;1999.90;999.90;;;;;;;21.41;83.91;100964.78;15831588;28;20040;-62
2021/07/12 06:11:30;;;;;;;1999.90;999.90;;;;;;;21.99;82.76;100955.94;15784961;28;20102;-61
2021/07/12 06:19:02;;;;;;;1999.90;999.90;;;;;;;21.75;83.16;100962.41;15784427;28;20127;-61
2021/07/12 06:26:36;;;;;;;1999.90;999.90;;;;;;;21.64;84.52;100964.41;15802298;28;20094;-61
2021/07/12 06:34:08;;;;;;;1999.90;999.90;;;;;;;21.93;84.03;100963.25;15802120;28;20101;-62
2021/07/12 06:41:42;;;;;;;1999.90;999.90;;;;;;;21.84;82.16;100977.03;15801676;28;20524;-63
2021/07/12 06:49:14;;;;;;;1999.90;999.90;;;;;;;21.75;83.27;100968.09;15801685;28;20519;-61
2021/07/12 06:56:48;;;;;;;1999.90;999.90;;;;;;;22.31;80.30;100961.66;15801016;28;20098;-62
2021/07/12 07:04:22;;;;;;;1999.90;999.90;;;;;;;22.41;80.14;100975.03;15793522;28;20043;-61
2021/07/12 07:11:56;;;;;;;1999.90;999.90;;;;;;;22.56;78.77;100952.25;15846494;28;20039;-61
2021/07/12 07:19:28;;;;;;;1999.90;999.90;;;;;;;22.97;78.96;100952.59;15857222;28;20047;-61
2021/07/12 07:27:02;;;;;;;1999.90;999.90;;;;;;;22.99;76.94;100952.97;15875056;28;20071;-61
2021/07/12 07:34:34;;;;;;;1999.90;999.90;;;;;;;23.26;76.33;100953.28;15875898;28;20040;-61
2021/07/12 07:42:07;;;;;;;1999.90;999.90;;;;;;;23.95;74.48;100949.56;15856880;28;20122;-61
2021/07/12 07:49:40;;;;;;;1999.90;999.90;;;;;;;24.69;71.10;100944.41;15873816;28;20062;-61
2021/07/12 07:57:13;;;;;;;1999.90;999.90;;;;;;;25.28;71.39;100936.38;15819805;28;20385;-62
2021/07/12 08:04:45;;;;;;;1999.90;999.90;;;;;;;25.59;66.27;100942.88;15811008;28;20044;-62
2021/07/12 08:12:19;;;;;;;;;;;;;;;25.33;69.87;100933.06;15810123;28;20039;-62
2021/07/12 08:19:51;;;;;;;1999.90;999.90;;;;;;;26.58;62.87;100933.91;15809557;28;20026;-62
2021/07/12 08:27:26;;;;;;;1999.90;999.90;;;;;;;26.56;62.62;100918.41;15806935;28;20044;-61
2021/07/12 08:34:58;;;;;;;1999.90;999.90;;;;;;;27.53;60.77;100918.81;15790042;28;20493;-63
2021/07/12 08:42:32;;;;;;;1999.90;999.90;;;;;;;27.35;59.47;100926.19;15789649;28;20066;-63
2021/07/12 08:50:06;;;;;;;1999.90;999.90;;;;;;;27.62;58.26;100918.19;15807750;28;20055;-61
2021/07/12 08:57:40;;;;;;;1999.90;999.90;;;;;;;27.61;56.88;100914.50;15780104;28;20101;-61
2021/07/12 09:05:12;;;;;;;1999.90;999.90;;;;;;;27.30;57.77;100908.28;15846832;28;20082;-61
2021/07/12 09:12:50;;;;;;;1999.90;999.90;;;;;;;28.25;54.68;100902.72;15867148;28;20047;-60
2021/07/12 09:20:27;;;;;;;1999.90;999.90;;;;;;;28.90;54.28;100916.94;15866174;28;20492;-65
2021/07/12 09:28:02;;;;;;;1999.90;999.90;;;;;;;28.15;54.29;100890.28;15866061;28;20047;-59
2021/07/12 09:35:34;;;;;;;1999.90;999.90;;;;;;;27.25;57.10;100883.03;15847497;28;20098;-60
2021/07/12 09:43:08;;;;;;;;;;;;;;;26.92;57.76;100895.59;15848879;28;20040;-64
2021/07/12 09:50:48;;;;;;;1999.90;999.90;;;;;;;27.23;56.08;100879.81;15867093;28;20415;-65
2021/07/12 09:58:25;;;;;;;1999.90;999.90;;;;;;;27.20;56.11;100885.59;15802174;28;20046;-65
2021/07/12 10:05:58;;;;;;;1999.90;999.90;;;;;;;27.81;54.53;100880.06;15802902;28;20040;-64
2021/07/12 10:13:32;;;;;;;1999.90;999.90;;;;;;;28.41;52.38;100874.00;15801765;28;20062;-64
2021/07/12 10:21:06;;;;;;;1999.90;999.90;;;;;;;27.52;55.56;100865.63;15802007;28;20119;-64
2021/07/12 10:28:43;;;;;;;1999.90;999.90;;;;;;;28.14;54.06;100857.91;15835829;28;20050;-62
2021/07/12 10:36:37;;;;;;;1999.90;999.90;;;;;;;30.04;50.21;100848.00;15846399;28;20046;-64
2021/07/12 10:44:10;;;;;;;1999.90;999.90;;;;;;;28.78;51.72;100843.03;15856081;28;20117;-63
2021/07/12 10:51:43;;;;;;;1999.90;999.90;;;;;;;28.29;52.99;100835.41;15807271;22;20238;-65
2021/07/12 10:59:30;;;;;;;1999.90;999.90;;;;;;;27.81;53.83;100841.97;15869994;28;20043;-66
2021/07/12 11:07:05;;;;;;;1999.90;999.90;;;;;;;27.67;54.78;100836.63;15851834;28;20126;-65
2021/07/12 11:14:38;;;;;;;1999.90;999.90;;;;;;;27.66;55.32;100835.00;15853000;28;20040;-66
2021/07/12 11:22:24;;;;;;;1999.90;999.90;;;;;;;29.42;52.10;100835.31;15843173;28;20516;-65
2021/07/12 11:30:28;;;;;;;1999.90;999.90;;;;;;;30.96;47.57;100832.28;15805106;28;20075;-63
2021/07/12 11:38:04;;;;;;;1999.90;999.90;;;;;;;30.09;48.32;100826.47;15759181;28;20068;-65
2021/07/12 11:45:37;;;;;;;1999.90;999.90;;;;;;;29.43;48.34;100816.78;15758399;28;20131;-66
2021/07/12 11:53:09;;;;;;;1999.90;999.90;;;;;;;29.71;49.63;100810.13;15742983;28;20435;-65
2021/07/12 12:00:43;;;;;;;1999.90;999.90;;;;;;;29.16;48.97;100802.88;15768379;28;20154;-64
2021/07/12 12:08:17;;;;;;;1999.90;999.90;;;;;;;29.33;49.37;100793.69;15767810;28;20097;-65
2021/07/12 12:15:52;;;;;;;1999.90;999.90;;;;;;;31.39;43.36;100784.47;15809122;28;20071;-66
2021/07/12 12:23:26;;;;;;;1999.90;999.90;;;;;;;32.11;43.08;100787.97;15865456;28;20048;-65
2021/07/12 12:31:07;;;;;;;1999.90;999.90;;;;;;;33.15;41.23;100783.97;15835101;28;20485;-65
2021/07/12 12:38:50;;;;;;;1999.90;999.90;;;;;;;32.45;42.27;100783.97;15801987;28;20197;-65
2021/07/12 12:46:27;;;;;;;1999.90;999.90;;;;;;;34.31;39.13;100770.50;15782955;28;20033;-65
2021/07/12 12:54:06;;;;;;;1999.90;999.90;;;;;;;31.57;44.04;100763.50;15799944;28;20736;-66
2021/07/12 13:01:48;;;;;;;1999.90;999.90;;;;;;;30.15;45.85;100758.44;15781689;28;20369;-65
2021/07/12 13:09:31;;;;;;;1999.90;999.90;;;;;;;29.38;47.69;100754.13;15779082;28;20048;-64
2021/07/12 13:17:09;;;;;;;1999.90;999.90;;;;;;;30.18;46.25;100738.16;15798674;28;20103;-64
2021/07/12 13:24:44;;;;;;;1999.90;999.90;;;;;;;29.40;47.86;100738.06;15798031;28;20079;-63
2021/07/12 13:32:18;;;;;;;1999.90;999.90;;;;;;;29.71;48.83;100731.69;15798226;28;20048;-65
2021/07/12 13:39:52;;;;;;;1999.90;999.90;;;;;;;29.59;48.81;100725.47;15780387;28;20500;-65
2021/07/12 13:47:29;;;;;;;1999.90;999.90;;;;;;;29.16;48.52;100719.56;15749578;28;20041;-65
2021/07/12 13:55:05;;;;;;;1999.90;999.90;;;;;;;29.16;47.56;100720.38;15768315;28;20138;-65
2021/07/12 14:02:50;;;;;;;1999.90;999.90;;;;;;;28.63;49.80;100711.38;15766719;28;20047;-65
2021/07/12 14:10:24;;;;;;;1999.90;999.90;;;;;;;28.62;49.08;100720.47;15734379;28;20489;-65
2021/07/12 14:17:58;;;;;;;1999.90;999.90;;;;;;;27.58;51.74;100702.50;15734936;28;20045;-65
2021/07/12 14:25:30;;;;;;;1999.90;999.90;;;;;;;28.22;50.69;100697.06;15771524;28;20032;-65
2021/07/12 14:33:07;;;;;;;1999.90;999.90;;;;;;;27.76;52.08;100697.13;15754970;28;20099;-65
2021/07/12 14:40:40;;;;;;;1999.90;999.90;;;;;;;28.27;50.76;100697.31;15766951;28;20036;-66
2021/07/12 14:48:13;;;;;;;1999.90;999.90;;;;;;;28.64;50.58;100674.88;15770712;28;20094;-66
2021/07/12 14:55:46;;;;;;;1999.90;999.90;;;;;;;27.94;50.98;100676.56;15757872;28;20048;-66
2021/07/12 15:03:21;;;;;;;1999.90;999.90;;;;;;;28.12;50.61;100664.56;15764383;28;20385;-66
2021/07/12 15:10:58;;;;;;;1999.90;999.90;;;;;;;29.52;48.89;100667.44;15745725;28;20056;-67
2021/07/12 15:18:33;;;;;;;1999.90;999.90;;;;;;;28.71;46.80;100666.84;15751294;28;20116;-67
2021/07/12 15:26:06;;;;;;;1999.90;999.90;;;;;;;29.13;46.98;100658.09;15783008;28;20532;-68
2021/07/12 15:33:39;;;;;;;1999.90;999.90;;;;;;;29.09;47.24;100654.56;15772193;28;20060;-67
2021/07/12 15:41:12;;;;;;;1999.90;999.90;;;;;;;28.85;47.93;100653.28;15743833;28;20068;-67
2021/07/12 15:48:47;;;;;;;1999.90;999.90;;;;;;;28.37;48.73;100652.38;15778110;28;20462;-68
2021/07/12 15:56:20;;;;;;;1999.90;999.90;;;;;;;28.43;49.80;100645.59;15778758;28;20093;-67
2021/07/12 16:04:04;;;;;;;1999.90;999.90;;;;;;;28.61;50.33;100650.75;15777965;28;20110;-67
2021/07/12 16:11:37;;;;;;;1999.90;999.90;;;;;;;27.77;49.40;100640.59;15754252;28;20047;-64
2021/07/12 16:19:12;;;;;;;1999.90;999.90;;;;;;;28.03;49.62;100635.72;15767052;28;20041;-64
2021/07/12 16:26:48;;;;;;;1999.90;999.90;;;;;;;27.50;50.83;100636.00;15758334;28;20102;-63
2021/07/12 16:34:28;;;;;;;1999.90;999.90;;;;;;;27.60;51.25;100629.16;15782034;28;20093;-64
2021/07/12 16:42:00;;;;;;;1999.90;999.90;;;;;;;27.43;51.92;100641.94;15757992;28;20348;-64
2021/07/12 16:49:34;;;;;;;;;;;;;;;27.55;51.52;100638.31;15798095;28;20492;-64
2021/07/12 16:57:13;;;;;;;1999.90;999.90;;;;;;;26.94;53.24;100635.44;15784316;23;19930;-61
2021/07/12 17:04:46;;;;;;;1999.90;999.90;;;;;;;27.41;52.54;100626.44;15770505;28;20041;-59
2021/07/12 17:12:22;;;;;;;1999.90;999.90;;;;;;;27.03;53.40;100625.00;15718158;28;20489;-60
2021/07/12 17:20:01;;;;;;;1999.90;999.90;;;;;;;26.98;53.50;100631.22;15737249;28;20484;-58
2021/07/12 17:27:38;;;;;;;1999.90;999.90;;;;;;;27.19;52.83;100626.22;15718967;28;20071;-59
2021/07/12 17:35:14;;;;;;;1999.90;999.90;;;;;;;26.92;53.72;100620.75;15719504;28;20083;-58
2021/07/12 17:42:47;;;;;;;1999.90;999.90;;;;;;;26.94;54.26;100629.69;15701527;28;20117;-59
2021/07/12 17:50:21;;;;;;;1999.90;999.90;;;;;;;26.45;55.48;100612.50;15717425;28;20455;-57
2021/07/12 17:57:53;;;;;;;1999.90;999.90;;;;;;;26.28;56.35;100605.13;15725274;28;20458;-61
2021/07/12 18:05:28;;;;;;;;;;;;;;;26.15;57.15;100610.69;15735102;28;20114;-58
2021/07/12 18:13:01;;;;;;;1999.90;999.90;;;;;;;25.98;57.84;100611.91;15732856;28;20048;-60
2021/07/12 18:20:37;;;;;;;1999.90;999.90;;;;;;;26.23;57.27;100611.34;15734563;28;20052;-61
2021/07/12 18:28:09;;;;;;;1999.90;999.90;;;;;;;26.21;57.79;100622.44;15733906;28;20052;-60
2021/07/12 18:35:43;;;;;;;;;;;;;;;26.23;57.59;100637.09;15731040;28;20041;-60
2021/07/12 18:43:15;;;;;;;1999.90;999.90;;;;;;;26.00;58.47;100635.94;15718679;28;19931;-62
2021/07/12 18:50:51;;;;;;;1999.90;999.90;;;;;;;25.67;59.95;100637.84;15715309;28;20435;-61
2021/07/12 18:58:25;;;;;;;1999.90;999.90;;;;;;;25.88;60.56;100643.16;15781901;28;20048;-61
2021/07/12 19:05:59;;;;;;;;;;;;;;;25.85;60.73;100648.94;15748667;28;20124;-63
2021/07/12 19:13:31;;;;;;;1999.90;999.90;;;;;;;25.77;61.08;100639.72;15734921;28;19920;-59
2021/07/12 19:21:06;;;;;;;1999.90;999.90;;;;;;;25.43;62.86;100639.13;15782454;28;20408;-55
2021/07/12 19:28:38;;;;;;;1999.90;999.90;;;;;;;25.04;64.43;100637.81;15784231;28;20112;-61
2021/07/12 19:36:15;;;;;;;1999.90;999.90;;;;;;;24.81;65.64;100649.97;15761156;28;20389;-64
2021/07/12 19:43:49;;;;;;;1999.90;999.90;;;;;;;24.59;66.75;100652.34;15783463;28;20044;-62
2021/07/12 19:51:23;;;;;;;1999.90;999.90;;;;;;;24.31;67.61;100650.72;15771133;28;20051;-60
2021/07/12 19:58:55;;;;;;;1999.90;999.90;;;;;;;24.12;67.92;100668.47;15741971;28;20051;-58
2021/07/12 20:06:29;;;;;;;1999.90;999.90;;;;;;;23.95;68.94;100660.94;15723921;28;20451;-62
2021/07/12 20:14:01;;;;;;;1999.90;999.90;;;;;;;23.75;69.37;100664.44;15730813;28;20118;-60
2021/07/12 20:21:35;;;;;;;1999.90;999.90;;;;;;;23.66;69.75;100654.81;15732046;28;20048;-59
2021/07/12 20:29:09;;;;;;;1999.90;999.90;;;;;;;23.48;70.21;100650.06;15717966;28;20036;-62
2021/07/12 20:36:42;;;;;;;1999.90;999.90;;;;;;;23.45;70.37;100650.94;15710262;28;20075;-59
2021/07/12 20:44:14;;;;;;;1999.90;999.90;;;;;;;23.30;71.16;100650.25;15690340;28;20094;-57
2021/07/12 20:51:48;;;;;;;1999.90;999.90;;;;;;;23.31;71.42;100646.16;15722888;28;20476;-55
2021/07/12 20:59:21;;;;;;;1999.90;999.90;;;;;;;22.94;72.21;100637.59;15749531;28;20040;-58
2021/07/12 21:06:55;;;;;;;1999.90;999.90;;;;;;;22.93;72.73;100641.66;15759245;28;20037;-61
2021/07/12 21:14:27;;;;;;;1999.90;999.90;;;;;;;22.91;72.62;100642.06;15686694;28;20045;-59
2021/07/12 21:22:01;;;;;;;1999.90;999.90;;;;;;;22.86;72.68;100642.53;15749049;28;20212;-56
2021/07/12 21:29:33;;;;;;;1999.90;999.90;;;;;;;22.74;72.83;100655.19;15744259;28;20040;-59
2021/07/12 21:37:07;;;;;;;1999.90;999.90;;;;;;;22.67;73.06;100649.53;15744045;28;20508;-57
2021/07/12 21:44:39;;;;;;;1999.90;999.90;;;;;;;22.57;73.23;100658.16;15683037;28;20063;-59
2021/07/12 21:52:13;;;;;;;1999.90;999.90;;;;;;;22.45;73.79;100651.72;15795770;28;20458;-61
2021/07/12 21:59:46;;;;;;;1999.90;999.90;;;;;;;22.41;73.90;100653.00;15779631;28;20066;-59
2021/07/12 22:07:22;;;;;;;1999.90;999.90;;;;;;;22.35;74.12;100657.47;15776242;28;20130;-60
2021/07/12 22:14:54;;;;;;;1999.90;999.90;;;;;;;22.26;74.34;100666.47;15758333;28;20479;-61
2021/07/12 22:22:29;;;;;;;1999.90;999.90;;;;;;;22.20;74.75;100653.91;15760319;28;20055;-62
2021/07/12 22:30:02;;;;;;;1999.90;999.90;;;;;;;22.12;74.79;100655.19;15795361;28;20098;-59
2021/07/12 22:37:35;;;;;;;1999.90;999.90;;;;;;;22.09;74.38;100636.94;15795158;28;20048;-62
2021/07/12 22:45:08;;;;;;;1999.90;999.90;;;;;;;21.99;74.66;100642.59;15766563;28;20076;-64
2021/07/12 22:52:42;;;;;;;1999.90;999.90;;;;;;;21.90;74.91;100631.72;15801244;28;20420;-58
2021/07/12 23:00:18;;;;;;;1999.90;999.90;;;;;;;21.75;75.01;100632.97;15764465;28;20098;-59
2021/07/12 23:07:52;;;;;;;1999.90;999.90;;;;;;;21.93;74.72;100627.22;15758937;28;20074;-61
2021/07/12 23:15:26;;;;;;;1999.90;999.90;;;;;;;21.76;74.57;100635.41;15747927;28;20050;-59
2021/07/12 23:23:00;;;;;;;1999.90;999.90;;;;;;;21.73;75.14;100615.53;15737192;28;20056;-58
2021/07/12 23:30:32;;;;;;;1999.90;999.90;;;;;;;21.59;75.79;100614.38;15772902;28;20416;-58
2021/07/12 23:38:05;;;;;;;1999.90;999.90;;;;;;;21.54;76.05;100616.81;15745595;28;20135;-61
2021/07/12 23:45:38;;;;;;;1999.90;999.90;;;;;;;21.44;75.41;100617.66;15680311;28;20122;-59
2021/07/12 23:53:11;;;;;;;1999.90;999.90;;;;;;;21.32;76.09;100630.25;15792577;28;20040;-57
